La Guardia Airport
KLGA : rendu visible

Aérodrome :











RETROUVEZ-NOUS SUR...

 
LOGIN :

S'inscrire | Disclaimer

   EN    FR    IT 

 









Légende :    VFR   VFR Marginal   IFR   IFR Intensif   IFR Très Intensif
Visi : 
Plafond : 
>= 8 km
>= 3000ft
5 à 8 km
1000 à 3000 ft
1500m à 5 km
500 à 1000 ft
800 à 1500m
200 à 500 ft
< 800m
< 200 ft
Symboles :   Orages  Brouillard  Fortes neiges  Fortes précipitations  Vent > 20 kt






- Altitude de l'aérodrome : 21 ft
- Code IATA : LGA


KLGA - La Guardia

DERNIER METAR :
  • 011251Z 36006KT 10SM FEW110 FEW250 15/02 A3026 RMK AO2 SLP246 T01500022

METARs EXPIRÉS :
  • 011151Z 33007KT 10SM FEW250 13/02 A3026 RMK AO2 SLP246 T01330017 10139 20122 53020
  • 011051Z 33010KT 10SM FEW250 13/02 A3024 RMK AO2 SLP238 T01280022

TAF KLGA
Valide du 01 à 12h jusqu'au 02 à 18h UTC


011120Z 0112/0218 31007KT P6SM SKC
FM011400 30009KT P6SM FEW060
FM011700 29010G18KT P6SM SCT060 BKN100
FM020100 29006KT P6SM BKN100
FIR KZNY / Amérique du Nord



MET'MAP, la Météo Aéronautique d'un coup d'oeil ! - Copyright ORBIFLY Décembre 2007 - Disclaimer

ORBIFLY MET'MAP TEAM :

Programmation & Développement : Alexandra Zaïnal
Sur une idée originale de : Baudouin d'Aumeries
Assistance à la programmation : Marc-Olivier Méhu
Soutien technique & logistique : Manuel Goepfert

Contact : metmap@orbifly.com




SOURCES & CREDITS :

   NOAA       Earth
Advisory